createdAt,value
2023-03-24T00:02:07.917Z,3.30
2023-03-24T00:07:15.353Z,3.40
2023-03-24T00:12:19.772Z,3.40
2023-03-24T00:17:26.065Z,3.70
2023-03-24T00:22:30.494Z,3.10
2023-03-24T00:27:38.074Z,3.50
2023-03-24T00:32:43.479Z,3.60
2023-03-24T00:37:48.136Z,3.00
2023-03-24T00:42:52.356Z,3.40
2023-03-24T00:47:58.400Z,3.50
2023-03-24T00:53:02.574Z,3.70
2023-03-24T00:58:06.607Z,3.70
2023-03-24T01:03:10.782Z,3.90
2023-03-24T01:08:21.404Z,3.50
2023-03-24T01:13:28.794Z,3.60
2023-03-24T01:18:33.281Z,3.60
2023-03-24T01:23:38.033Z,3.60
2023-03-24T01:28:44.006Z,3.70
2023-03-24T01:33:48.149Z,3.70
2023-03-24T01:38:52.289Z,3.90
2023-03-24T01:43:56.410Z,3.90
2023-03-24T01:49:07.127Z,3.20
2023-03-24T01:54:48.612Z,3.70
2023-03-24T01:59:56.429Z,3.20
2023-03-24T02:05:28.885Z,3.30
2023-03-24T02:10:35.733Z,2.90
2023-03-24T02:15:55.624Z,3.00
2023-03-24T02:21:24.703Z,2.60
2023-03-24T02:26:37.148Z,3.00
2023-03-24T02:32:02.645Z,2.80
2023-03-24T02:37:27.866Z,3.30
2023-03-24T02:42:36.586Z,2.60
2023-03-24T02:47:47.755Z,2.40
2023-03-24T02:53:00.527Z,2.40
2023-03-24T02:58:39.341Z,2.90
2023-03-24T03:03:50.838Z,2.70
2023-03-24T03:08:57.981Z,2.40
2023-03-24T03:14:06.582Z,3.00
2023-03-24T03:19:21.771Z,2.50
2023-03-24T03:24:31.413Z,2.30
2023-03-24T03:29:40.780Z,2.20
2023-03-24T03:34:55.177Z,2.20
2023-03-24T03:40:12.344Z,2.10
2023-03-24T03:45:18.860Z,2.30
2023-03-24T03:50:23.952Z,2.40
2023-03-24T03:55:28.479Z,2.30
2023-03-24T04:00:32.909Z,2.10
2023-03-24T04:06:34.145Z,2.30
2023-03-24T04:12:28.950Z,2.60
2023-03-24T04:18:11.143Z,2.20
2023-03-24T04:23:44.967Z,2.00
2023-03-24T04:29:13.146Z,2.10
2023-03-24T04:34:22.505Z,2.10
2023-03-24T04:39:29.244Z,2.00
2023-03-24T04:44:37.236Z,2.10
2023-03-24T04:50:06.546Z,1.90
2023-03-24T04:55:51.405Z,2.40
2023-03-24T05:01:06.316Z,2.00
2023-03-24T05:06:10.926Z,2.00
2023-03-24T05:11:15.148Z,2.10
2023-03-24T05:16:24.445Z,2.00
2023-03-24T05:21:35.895Z,1.90
2023-03-24T05:26:40.752Z,1.70
2023-03-24T05:32:03.404Z,2.20
2023-03-24T05:37:12.451Z,1.90
2023-03-24T05:42:17.762Z,1.70
2023-03-24T05:47:21.642Z,2.00
2023-03-24T05:52:28.645Z,1.90
2023-03-24T05:57:38.424Z,1.80
2023-03-24T06:03:02.899Z,1.40
2023-03-24T06:08:13.892Z,1.90
2023-03-24T06:13:18.046Z,1.70
2023-03-24T06:18:24.624Z,1.40
2023-03-24T06:23:29.623Z,1.70
2023-03-24T06:28:48.039Z,2.00
2023-03-24T06:33:54.933Z,2.10
2023-03-24T06:38:59.284Z,1.80
2023-03-24T06:44:04.229Z,1.60
2023-03-24T06:49:09.497Z,1.60
2023-03-24T06:54:13.522Z,1.80
2023-03-24T06:59:18.373Z,1.80
2023-03-24T07:04:26.302Z,1.90
2023-03-24T07:09:30.949Z,1.60
2023-03-24T07:14:35.380Z,1.70
2023-03-24T07:19:41.862Z,2.10
2023-03-24T07:25:20.683Z,1.80
2023-03-24T07:30:44.978Z,1.80
2023-03-24T07:35:49.617Z,2.10
2023-03-24T07:40:54.392Z,1.70
2023-03-24T07:45:58.520Z,1.60
2023-03-24T07:51:06.143Z,1.70
2023-03-24T07:56:25.480Z,2.00
2023-03-24T08:01:33.174Z,1.80
2023-03-24T08:06:39.423Z,1.50
2023-03-24T08:11:43.355Z,1.80
2023-03-24T08:16:47.403Z,1.50
2023-03-24T08:21:51.521Z,1.60
2023-03-24T08:26:59.300Z,1.80
2023-03-24T08:32:03.590Z,2.00
2023-03-24T08:37:08.976Z,1.60
2023-03-24T08:42:13.065Z,2.20
2023-03-24T08:47:17.024Z,1.50
2023-03-24T08:52:20.928Z,1.40
2023-03-24T08:57:25.066Z,1.50
2023-03-24T09:02:28.919Z,1.70
2023-03-24T09:07:33.226Z,1.70
2023-03-24T09:12:38.592Z,2.50
2023-03-24T09:17:43.372Z,3.60
2023-03-24T09:22:47.885Z,2.90
2023-03-24T09:27:51.831Z,3.30
2023-03-24T09:32:59.178Z,3.70
2023-03-24T09:38:03.040Z,3.50
2023-03-24T09:43:37.404Z,3.20
2023-03-24T09:48:52.559Z,3.30
2023-03-24T09:54:22.595Z,3.50
2023-03-24T09:59:29.387Z,3.00
2023-03-24T10:04:33.311Z,3.10
2023-03-24T10:09:38.102Z,3.90
2023-03-24T10:15:08.204Z,2.70
2023-03-24T10:20:47.121Z,2.80
2023-03-24T10:26:15.627Z,3.60
2023-03-24T10:31:29.800Z,3.10
2023-03-24T10:36:34.532Z,2.80
2023-03-24T10:41:41.545Z,3.10
2023-03-24T10:46:49.768Z,3.10
2023-03-24T10:52:02.210Z,3.00
2023-03-24T10:57:18.092Z,3.40
2023-03-24T11:02:30.060Z,3.10
2023-03-24T11:07:40.057Z,3.20
2023-03-24T11:13:02.597Z,2.90
2023-03-24T11:18:12.685Z,3.30
2023-03-24T11:23:25.653Z,2.70
2023-03-24T11:28:30.825Z,2.90
2023-03-24T11:33:42.900Z,3.20
2023-03-24T11:39:25.509Z,2.80
2023-03-24T11:44:42.025Z,3.30
2023-03-24T11:49:53.654Z,2.80
2023-03-24T11:54:57.674Z,3.00
2023-03-24T12:00:14.081Z,2.90
2023-03-24T12:05:31.840Z,2.60
2023-03-24T12:11:03.901Z,3.00
2023-03-24T12:16:26.296Z,2.70
2023-03-24T12:21:52.182Z,2.60
2023-03-24T12:27:00.467Z,2.80
2023-03-24T12:32:13.450Z,2.80
2023-03-24T12:37:32.321Z,2.60
2023-03-24T12:42:47.112Z,2.60
2023-03-24T12:48:37.175Z,2.30
2023-03-24T12:53:47.053Z,2.30
2023-03-24T12:58:57.358Z,2.50
2023-03-24T13:04:42.578Z,2.30
2023-03-24T13:09:55.995Z,2.70
2023-03-24T13:15:26.583Z,2.30
2023-03-24T13:20:56.142Z,2.40
2023-03-24T13:26:16.525Z,2.30
2023-03-24T13:31:24.600Z,2.40
2023-03-24T13:36:45.373Z,2.30
2023-03-24T13:41:51.881Z,2.40
2023-03-24T13:47:19.095Z,2.30
2023-03-24T13:52:36.874Z,2.00
2023-03-24T13:57:52.847Z,2.40
2023-03-24T14:03:06.660Z,2.20
2023-03-24T14:08:15.196Z,1.90
2023-03-24T14:13:22.834Z,2.10
2023-03-24T14:18:27.117Z,2.20
2023-03-24T14:23:56.833Z,2.20
2023-03-24T14:29:04.837Z,2.20
2023-03-24T14:34:14.593Z,2.40
2023-03-24T14:39:40.773Z,2.90
2023-03-24T14:44:49.802Z,2.70
2023-03-24T14:49:55.834Z,3.10
2023-03-24T14:55:12.697Z,2.70
2023-03-24T15:00:19.871Z,2.70
2023-03-24T15:05:34.676Z,2.50
2023-03-24T15:11:01.809Z,2.70
2023-03-24T15:16:14.059Z,2.90
2023-03-24T15:21:37.233Z,2.50
2023-03-24T15:26:41.547Z,2.70
2023-03-24T15:31:45.972Z,2.50
2023-03-24T15:36:54.909Z,2.30
2023-03-24T15:41:59.243Z,2.30
2023-03-24T15:47:04.542Z,2.60
2023-03-24T15:52:35.507Z,2.60
2023-03-24T15:57:44.392Z,2.80
2023-03-24T16:02:56.241Z,3.20
2023-03-24T16:08:24.531Z,2.90
2023-03-24T16:13:29.530Z,2.40
2023-03-24T16:18:36.879Z,2.80
2023-03-24T16:23:44.588Z,5.60
2023-03-24T16:28:49.757Z,6.30
2023-03-24T16:33:56.035Z,8.20
2023-03-24T16:39:02.005Z,6.60
2023-03-24T16:44:06.549Z,5.40
2023-03-24T16:49:14.798Z,5.70
2023-03-24T16:54:20.194Z,5.70
2023-03-24T16:59:24.076Z,4.70
2023-03-24T17:04:31.584Z,4.70
2023-03-24T17:09:36.552Z,5.40
2023-03-24T17:14:40.764Z,5.30
2023-03-24T17:19:44.905Z,4.90
2023-03-24T17:24:50.415Z,4.70
2023-03-24T17:29:55.594Z,4.80
2023-03-24T17:35:03.162Z,4.20
2023-03-24T17:40:12.712Z,4.40
2023-03-24T17:45:19.594Z,4.80
2023-03-24T17:50:27.132Z,4.20
2023-03-24T17:55:33.086Z,4.30
2023-03-24T18:00:38.542Z,4.20
2023-03-24T18:05:44.957Z,4.30
2023-03-24T18:10:50.658Z,3.80
2023-03-24T18:15:55.766Z,4.50
2023-03-24T18:21:01.826Z,4.00
2023-03-24T18:26:11.977Z,3.70
2023-03-24T18:31:21.378Z,3.60
2023-03-24T18:36:28.283Z,3.40
2023-03-24T18:41:39.619Z,3.60
2023-03-24T18:46:46.207Z,3.20
2023-03-24T18:51:53.182Z,3.10
2023-03-24T18:56:59.556Z,3.50
2023-03-24T19:02:05.900Z,3.20
2023-03-24T19:07:15.509Z,3.30
2023-03-24T19:12:21.772Z,3.60
2023-03-24T19:17:29.317Z,2.80
2023-03-24T19:22:34.986Z,3.50
2023-03-24T19:27:41.402Z,3.50
2023-03-24T19:32:48.297Z,3.60
2023-03-24T19:37:54.986Z,3.30
2023-03-24T19:43:01.071Z,3.40
2023-03-24T19:48:06.477Z,2.90
2023-03-24T19:53:12.928Z,3.30
2023-03-24T19:58:19.002Z,2.80
2023-03-24T20:03:24.712Z,2.40
2023-03-24T20:08:31.271Z,3.00
2023-03-24T20:13:37.207Z,3.20
2023-03-24T20:18:44.706Z,2.60
2023-03-24T20:23:53.103Z,2.90
2023-03-24T20:28:59.834Z,2.80
2023-03-24T20:34:07.341Z,3.20
2023-03-24T20:39:13.139Z,3.30
2023-03-24T20:44:20.138Z,2.50
2023-03-24T20:49:27.063Z,3.00
2023-03-24T20:54:35.109Z,2.70
2023-03-24T20:59:44.623Z,2.60
2023-03-24T21:04:50.750Z,3.00
2023-03-24T21:09:56.811Z,2.70
2023-03-24T21:15:05.726Z,2.80
2023-03-24T21:20:14.145Z,3.10
2023-03-24T21:25:21.865Z,2.50
2023-03-24T21:30:28.602Z,2.60
2023-03-24T21:35:33.321Z,2.70
2023-03-24T21:40:37.630Z,2.70
2023-03-24T21:45:46.690Z,2.40
2023-03-24T21:50:52.675Z,2.50
2023-03-24T21:56:05.006Z,2.50
2023-03-24T22:01:09.831Z,2.30
2023-03-24T22:06:15.234Z,2.70
2023-03-24T22:11:19.635Z,2.70
2023-03-24T22:16:23.464Z,2.50
2023-03-24T22:21:27.617Z,2.60
2023-03-24T22:26:31.945Z,3.00
2023-03-24T22:31:36.267Z,2.70
2023-03-24T22:36:40.406Z,2.80
2023-03-24T22:41:44.443Z,2.70
2023-03-24T22:46:48.455Z,2.90
2023-03-24T22:51:53.313Z,2.40
2023-03-24T22:56:57.389Z,4.40
2023-03-24T23:02:09.266Z,4.10
2023-03-24T23:07:14.748Z,3.40
2023-03-24T23:12:19.798Z,3.10
2023-03-24T23:17:24.569Z,3.30
2023-03-24T23:22:29.338Z,3.10
2023-03-24T23:27:35.078Z,5.90
2023-03-24T23:32:41.656Z,4.80
2023-03-24T23:37:45.897Z,4.90
2023-03-24T23:42:51.060Z,4.40
2023-03-24T23:47:55.250Z,4.20
2023-03-24T23:52:59.640Z,4.50
2023-03-24T23:58:04.800Z,4.30
